createdAt,value
2018-09-26T00:03:43.149Z,5.33
2018-09-26T00:08:39.839Z,5.80
2018-09-26T00:13:36.605Z,7.07
2018-09-26T00:18:33.378Z,5.73
2018-09-26T00:23:30.027Z,8.40
2018-09-26T00:28:26.746Z,4.13
2018-09-26T00:33:23.529Z,3.27
2018-09-26T00:38:20.230Z,5.10
2018-09-26T00:43:16.959Z,5.63
2018-09-26T00:48:13.673Z,5.70
2018-09-26T00:53:10.389Z,6.63
2018-09-26T00:58:07.149Z,4.33
2018-09-26T01:03:03.871Z,4.97
2018-09-26T01:08:00.722Z,4.37
2018-09-26T01:12:57.493Z,4.37
2018-09-26T01:17:54.274Z,5.77
2018-09-26T01:22:50.997Z,8.30
2018-09-26T01:27:47.749Z,5.43
2018-09-26T01:32:45.412Z,5.07
2018-09-26T01:37:42.187Z,4.47
2018-09-26T01:42:38.901Z,3.60
2018-09-26T01:47:35.667Z,4.07
2018-09-26T01:52:32.605Z,2.80
2018-09-26T01:57:29.462Z,3.77
2018-09-26T02:02:26.155Z,7.40
2018-09-26T02:07:22.851Z,2.67
2018-09-26T02:12:19.571Z,2.97
2018-09-26T02:17:16.437Z,6.33
2018-09-26T02:22:13.145Z,5.00
2018-09-26T02:27:09.878Z,4.80
2018-09-26T02:32:06.810Z,4.10
2018-09-26T02:37:06.532Z,4.17
2018-09-26T02:42:03.295Z,5.67
2018-09-26T02:47:00.010Z,5.10
2018-09-26T02:51:56.807Z,4.97
2018-09-26T02:56:53.675Z,6.73
2018-09-26T03:01:50.403Z,3.40
2018-09-26T03:06:47.101Z,5.23
2018-09-26T03:11:43.875Z,2.57
2018-09-26T03:16:40.591Z,3.00
2018-09-26T03:21:37.265Z,6.30
2018-09-26T03:26:33.968Z,4.67
2018-09-26T03:31:30.875Z,3.40
2018-09-26T03:36:27.648Z,4.60
2018-09-26T03:41:24.317Z,3.80
2018-09-26T03:46:20.998Z,8.33
2018-09-26T03:51:18.016Z,3.40
2018-09-26T03:56:14.717Z,4.27
2018-09-26T04:01:11.392Z,4.70
2018-09-26T04:06:08.036Z,4.37
2018-09-26T04:11:04.769Z,3.33
2018-09-26T04:16:01.469Z,4.50
2018-09-26T04:20:58.185Z,4.63
2018-09-26T04:25:54.903Z,3.77
2018-09-26T04:30:51.633Z,3.13
2018-09-26T04:35:48.302Z,6.23
2018-09-26T04:40:45.022Z,3.40
2018-09-26T04:45:41.731Z,4.03
2018-09-26T04:50:38.471Z,5.37
2018-09-26T04:55:35.193Z,5.43
2018-09-26T05:00:32.139Z,8.03
2018-09-26T05:05:28.925Z,7.30
2018-09-26T05:10:25.696Z,5.53
2018-09-26T05:15:22.433Z,6.70
2018-09-26T05:20:19.241Z,5.93
2018-09-26T05:25:16.002Z,8.30
2018-09-26T05:30:12.829Z,11.10
2018-09-26T05:35:09.530Z,4.67
2018-09-26T05:40:06.217Z,6.20
2018-09-26T05:45:02.951Z,8.67
2018-09-26T05:49:59.737Z,7.53
2018-09-26T05:54:56.784Z,6.23
2018-09-26T05:59:53.468Z,7.13
2018-09-26T06:04:50.209Z,6.37
2018-09-26T06:09:46.888Z,7.27
2018-09-26T06:14:43.601Z,5.60
2018-09-26T06:19:40.277Z,8.93
2018-09-26T06:24:37.057Z,8.37
2018-09-26T06:29:33.800Z,13.23
2018-09-26T06:34:30.505Z,10.30
2018-09-26T06:39:27.176Z,7.07
2018-09-26T06:44:23.873Z,6.70
2018-09-26T06:49:20.598Z,8.70
2018-09-26T06:54:17.626Z,11.13
2018-09-26T06:59:14.457Z,9.67
2018-09-26T07:04:11.191Z,11.70
2018-09-26T07:09:08.400Z,10.07
2018-09-26T07:14:05.241Z,12.63
2018-09-26T07:19:02.113Z,10.23
2018-09-26T07:23:58.986Z,5.10
2018-09-26T07:28:55.720Z,6.37
2018-09-26T07:33:52.479Z,4.63
2018-09-26T07:38:49.232Z,8.37
2018-09-26T07:43:46.031Z,2.97
2018-09-26T07:48:42.805Z,3.97
2018-09-26T07:53:39.493Z,4.13
2018-09-26T07:58:36.237Z,4.33
2018-09-26T08:03:33.021Z,4.77
2018-09-26T08:08:29.749Z,8.43
2018-09-26T08:13:26.612Z,4.97
2018-09-26T08:18:23.418Z,5.53
2018-09-26T08:23:20.086Z,1.95
2018-09-26T08:28:16.949Z,3.87
2018-09-26T08:33:13.712Z,3.95
2018-09-26T08:38:10.444Z,4.15
2018-09-26T08:43:07.173Z,7.72
2018-09-26T08:48:03.881Z,2.22
2018-09-26T08:53:01.577Z,5.33
2018-09-26T08:57:58.323Z,2.92
2018-09-26T09:02:55.163Z,3.98
2018-09-26T09:07:51.948Z,3.27
2018-09-26T09:12:48.662Z,3.30
2018-09-26T09:17:45.620Z,2.58
2018-09-26T09:22:42.329Z,3.00
2018-09-26T09:27:39.166Z,3.65
2018-09-26T09:32:35.848Z,2.95
2018-09-26T09:37:32.602Z,3.00
2018-09-26T09:42:29.274Z,2.45
2018-09-26T09:47:26.035Z,3.98
2018-09-26T09:52:22.769Z,3.27
2018-09-26T09:57:19.552Z,4.33
2018-09-26T10:02:16.653Z,2.72
2018-09-26T10:07:13.320Z,3.67
2018-09-26T10:12:10.081Z,2.27
2018-09-26T10:17:06.988Z,3.92
2018-09-26T10:22:03.765Z,4.40
2018-09-26T10:27:00.507Z,4.25
2018-09-26T10:31:57.195Z,2.35
2018-09-26T10:36:53.882Z,3.10
2018-09-26T10:41:50.623Z,2.80
2018-09-26T10:46:47.363Z,2.22
2018-09-26T10:51:44.103Z,1.80
2018-09-26T10:56:40.888Z,3.00
2018-09-26T11:01:37.522Z,2.85
2018-09-26T11:06:34.315Z,3.77
2018-09-26T11:11:31.059Z,1.90
2018-09-26T11:16:27.967Z,2.27
2018-09-26T11:21:24.719Z,1.92
2018-09-26T11:26:21.434Z,1.75
2018-09-26T11:31:18.015Z,3.12
2018-09-26T11:36:14.727Z,1.87
2018-09-26T11:41:11.514Z,2.98
2018-09-26T11:46:08.428Z,3.17
2018-09-26T11:51:05.186Z,1.70
2018-09-26T11:56:02.222Z,1.62
2018-09-26T12:00:58.874Z,3.33
2018-09-26T12:05:55.656Z,3.50
2018-09-26T12:10:52.413Z,4.87
2018-09-26T12:15:49.151Z,1.72
2018-09-26T12:20:45.880Z,3.87
2018-09-26T12:25:42.638Z,3.05
2018-09-26T12:30:39.412Z,3.05
2018-09-26T12:35:36.167Z,2.62
2018-09-26T12:40:32.897Z,5.20
2018-09-26T12:45:29.635Z,2.60
2018-09-26T12:50:26.461Z,2.90
2018-09-26T12:55:23.249Z,3.58
2018-09-26T13:00:19.990Z,1.75
2018-09-26T13:05:16.715Z,2.62
2018-09-26T13:10:13.490Z,2.08
2018-09-26T13:15:10.183Z,3.20
2018-09-26T13:20:07.101Z,2.45
2018-09-26T13:25:03.919Z,2.35
2018-09-26T13:30:00.854Z,2.12
2018-09-26T13:34:57.653Z,3.42
2018-09-26T13:39:54.406Z,4.95
2018-09-26T13:44:51.111Z,1.40
2018-09-26T13:49:48.032Z,2.40
2018-09-26T13:54:44.737Z,3.47
2018-09-26T13:59:41.443Z,2.72
2018-09-26T14:04:38.223Z,1.92
2018-09-26T14:09:35.301Z,2.20
2018-09-26T14:14:32.148Z,2.85
2018-09-26T14:19:29.487Z,2.33
2018-09-26T14:24:26.201Z,5.67
2018-09-26T14:29:23.043Z,3.40
2018-09-26T14:34:19.745Z,3.22
2018-09-26T14:39:16.538Z,3.75
2018-09-26T14:44:13.290Z,1.92
2018-09-26T14:49:09.908Z,2.12
2018-09-26T14:54:06.613Z,1.87
2018-09-26T14:59:03.429Z,1.98
2018-09-26T15:04:00.173Z,4.03
2018-09-26T15:08:56.888Z,2.85
2018-09-26T15:13:53.633Z,2.62
2018-09-26T15:18:50.361Z,3.30
2018-09-26T15:23:47.248Z,3.62
2018-09-26T15:28:43.916Z,5.05
2018-09-26T15:33:40.639Z,2.75
2018-09-26T15:38:37.396Z,4.50
2018-09-26T15:43:34.133Z,1.87
2018-09-26T15:48:30.930Z,3.05
2018-09-26T15:53:27.671Z,2.25
2018-09-26T15:58:24.543Z,3.25
2018-09-26T16:03:21.249Z,3.37
2018-09-26T16:08:18.128Z,4.93
2018-09-26T16:13:14.785Z,4.80
2018-09-26T16:18:11.497Z,4.03
2018-09-26T16:23:08.287Z,4.27
2018-09-26T16:28:05.048Z,6.63
2018-09-26T16:33:02.253Z,5.93
2018-09-26T16:37:59.356Z,6.23
2018-09-26T16:42:56.176Z,8.60
2018-09-26T16:47:53.136Z,3.23
2018-09-26T16:52:49.829Z,3.43
2018-09-26T16:57:46.758Z,3.30
2018-09-26T17:02:43.488Z,3.87
2018-09-26T17:07:40.329Z,2.30
2018-09-26T17:12:37.155Z,2.10
2018-09-26T17:17:33.913Z,2.37
2018-09-26T17:22:30.600Z,3.47
2018-09-26T17:27:27.394Z,3.30
2018-09-26T17:32:24.656Z,3.33
2018-09-26T17:37:21.378Z,3.50
2018-09-26T17:42:18.315Z,2.30
2018-09-26T17:47:15.022Z,3.80
2018-09-26T17:52:11.700Z,3.40
2018-09-26T17:57:08.493Z,5.87
2018-09-26T18:02:05.284Z,4.63
2018-09-26T18:07:02.070Z,2.97
2018-09-26T18:11:58.758Z,2.23
2018-09-26T18:16:55.426Z,7.93
2018-09-26T18:21:52.159Z,3.70
2018-09-26T18:26:48.921Z,3.77
2018-09-26T18:31:45.657Z,3.30
2018-09-26T18:36:42.431Z,4.37
2018-09-26T18:41:39.446Z,5.03
2018-09-26T18:46:36.248Z,5.23
2018-09-26T18:51:33.049Z,9.87
2018-09-26T18:56:29.742Z,26.90
2018-09-26T19:01:27.044Z,47.73
2018-09-26T19:06:23.922Z,16.70
2018-09-26T19:11:20.823Z,5.77
2018-09-26T19:16:17.537Z,4.10
2018-09-26T19:21:14.452Z,6.13
2018-09-26T19:26:11.250Z,3.13
2018-09-26T19:31:08.200Z,3.60
2018-09-26T19:36:05.028Z,3.10
2018-09-26T19:41:02.187Z,2.60
2018-09-26T19:45:58.909Z,4.23
2018-09-26T19:50:55.886Z,2.90
2018-09-26T19:55:52.605Z,3.23
2018-09-26T20:00:49.334Z,2.27
2018-09-26T20:05:46.120Z,3.87
2018-09-26T20:10:43.005Z,3.53
2018-09-26T20:15:39.611Z,4.90
2018-09-26T20:20:36.458Z,2.87
2018-09-26T20:25:33.193Z,7.27
2018-09-26T20:30:29.905Z,4.03
2018-09-26T20:35:26.809Z,3.13
2018-09-26T20:40:23.461Z,3.90
2018-09-26T20:45:20.170Z,5.87
2018-09-26T20:50:16.993Z,4.50
2018-09-26T20:55:13.714Z,4.60
2018-09-26T21:00:10.868Z,3.73
2018-09-26T21:05:07.598Z,4.27
2018-09-26T21:10:04.413Z,12.03
2018-09-26T21:15:01.135Z,21.73
2018-09-26T21:19:57.809Z,23.47
2018-09-26T21:24:54.555Z,15.33
2018-09-26T21:29:51.261Z,14.87
2018-09-26T21:34:48.088Z,12.90
2018-09-26T21:39:44.746Z,9.50
2018-09-26T21:44:41.628Z,7.33
2018-09-26T21:49:38.317Z,8.30
2018-09-26T21:54:34.996Z,7.30
2018-09-26T21:59:31.879Z,8.50
2018-09-26T22:04:28.675Z,5.10
2018-09-26T22:09:25.422Z,4.27
2018-09-26T22:14:22.099Z,4.57
2018-09-26T22:19:18.871Z,6.83
2018-09-26T22:24:15.583Z,5.03
2018-09-26T22:29:12.364Z,4.70
2018-09-26T22:34:09.108Z,4.37
2018-09-26T22:39:06.826Z,4.67
2018-09-26T22:44:03.621Z,7.00
2018-09-26T22:49:00.352Z,4.00
2018-09-26T22:53:57.116Z,5.57
2018-09-26T22:58:53.878Z,4.60
2018-09-26T23:03:50.579Z,4.40
2018-09-26T23:08:47.319Z,5.80
2018-09-26T23:13:44.057Z,5.23
2018-09-26T23:18:40.859Z,4.90
2018-09-26T23:23:37.600Z,10.57
2018-09-26T23:28:34.324Z,6.67
2018-09-26T23:33:31.022Z,9.20
2018-09-26T23:38:27.742Z,9.73
2018-09-26T23:43:24.415Z,8.70
2018-09-26T23:48:21.154Z,9.83
2018-09-26T23:53:18.146Z,8.20
2018-09-26T23:58:14.847Z,5.10
